Gravata, Brazil
Current Conditions -  °F | °C
As of 2:00 AM on Thursday 27 Nov 2014 (Local Time) from SBRF Reporting Station
Scattered Clouds Scattered Clouds  
Wind Chill: 79°   Ceiling: Unl
Heat Index: 81°   Visibility: 6mi
Dew Point: 70°   Wind: 7mph
Humidity: 74%   Direction: 90°E
Pressure: 29.85"   Gusts: NA
Location:  8.2°S, 35.56°W
Report Text: SBRF 270500Z 09006KT 9999 SCT025 26/21 Q1011
Loading
Personal Weather Stations






























Interactive Weather Map New forecast layout! Learn more

10-Day Weather Forecast

Advertisements
Track Severe Weather on mobile